createdAt,value
2022-12-04T00:01:39.673Z,39.08
2022-12-04T00:04:08.272Z,35.00
2022-12-04T00:06:36.448Z,41.85
2022-12-04T00:09:05.550Z,50.03
2022-12-04T00:11:34.295Z,51.03
2022-12-04T00:14:06.951Z,40.92
2022-12-04T00:16:36.865Z,37.28
2022-12-04T00:19:06.428Z,47.22
2022-12-04T00:21:34.468Z,44.75
2022-12-04T00:24:02.642Z,41.45
2022-12-04T00:26:31.677Z,42.65
2022-12-04T00:28:59.985Z,48.58
2022-12-04T00:31:29.992Z,51.80
2022-12-04T00:34:00.596Z,46.30
2022-12-04T00:36:30.304Z,50.10
2022-12-04T00:39:00.392Z,45.20
2022-12-04T00:41:33.898Z,48.28
2022-12-04T00:44:03.458Z,47.30
2022-12-04T00:46:31.641Z,47.45
2022-12-04T00:49:02.631Z,42.70
2022-12-04T00:51:31.289Z,40.58
2022-12-04T00:53:59.280Z,43.63
2022-12-04T00:56:30.452Z,56.55
2022-12-04T00:59:01.169Z,56.47
2022-12-04T01:01:30.124Z,46.03
2022-12-04T01:03:58.257Z,50.17
2022-12-04T01:06:29.877Z,52.80
2022-12-04T01:09:00.653Z,51.28
2022-12-04T01:11:30.368Z,53.35
2022-12-04T01:13:59.562Z,49.40
2022-12-04T01:16:30.760Z,46.75
2022-12-04T01:18:59.075Z,52.45
2022-12-04T01:21:28.548Z,49.00
2022-12-04T01:23:56.575Z,43.75
2022-12-04T01:26:24.834Z,56.85
2022-12-04T01:28:52.816Z,47.20
2022-12-04T01:31:22.686Z,50.85
2022-12-04T01:33:51.876Z,53.42
2022-12-04T01:36:24.185Z,43.50
2022-12-04T01:38:54.407Z,47.95
2022-12-04T01:41:25.571Z,49.53
2022-12-04T01:44:15.359Z,53.08
2022-12-04T01:46:44.637Z,52.95
2022-12-04T01:49:16.590Z,45.28
2022-12-04T01:51:49.267Z,51.20
2022-12-04T01:54:28.209Z,55.95
2022-12-04T01:57:00.625Z,52.83
2022-12-04T01:59:32.985Z,50.70
2022-12-04T02:02:04.793Z,52.60
2022-12-04T02:04:34.940Z,57.38
2022-12-04T02:07:03.032Z,66.30
2022-12-04T02:09:33.482Z,50.22
2022-12-04T02:12:08.703Z,58.83
2022-12-04T02:14:45.501Z,52.78
2022-12-04T02:17:22.126Z,53.70
2022-12-04T02:20:00.225Z,61.33
2022-12-04T02:22:45.059Z,58.58
2022-12-04T02:25:25.653Z,57.53
2022-12-04T02:28:03.882Z,53.60
2022-12-04T02:30:36.062Z,61.92
2022-12-04T02:33:09.604Z,64.30
2022-12-04T02:35:42.303Z,53.38
2022-12-04T02:38:16.750Z,55.97
2022-12-04T02:40:52.489Z,59.75
2022-12-04T02:43:26.362Z,54.72
2022-12-04T02:46:00.957Z,55.80
2022-12-04T02:51:02.910Z,52.50
2022-12-04T02:53:36.287Z,58.47
2022-12-04T02:56:10.565Z,57.92
2022-12-04T02:58:45.654Z,59.17
2022-12-04T03:01:23.744Z,58.42
2022-12-04T03:03:57.147Z,58.25
2022-12-04T03:06:28.289Z,61.60
2022-12-04T03:09:02.324Z,58.78
2022-12-04T03:11:35.848Z,52.58
2022-12-04T03:14:10.754Z,52.90
2022-12-04T03:16:42.016Z,51.25
2022-12-04T03:19:14.263Z,53.05
2022-12-04T03:21:47.520Z,54.80
2022-12-04T03:24:20.948Z,56.22
2022-12-04T03:26:52.938Z,55.58
2022-12-04T03:29:29.554Z,50.05
2022-12-04T03:32:04.933Z,56.65
2022-12-04T03:34:40.186Z,55.50
2022-12-04T03:37:14.625Z,54.28
2022-12-04T03:39:52.623Z,52.08
2022-12-04T03:42:26.634Z,55.85
2022-12-04T03:45:02.908Z,51.38
2022-12-04T03:47:36.767Z,53.75
2022-12-04T03:50:10.503Z,46.50
2022-12-04T03:52:47.664Z,58.90
2022-12-04T03:55:22.944Z,48.45
2022-12-04T03:57:53.399Z,51.38
2022-12-04T04:00:23.951Z,42.40
2022-12-04T04:02:56.888Z,47.42
2022-12-04T04:05:26.881Z,47.10
2022-12-04T04:08:18.169Z,59.00
2022-12-04T04:10:46.575Z,56.75
2022-12-04T04:13:37.467Z,50.90
2022-12-04T04:16:28.460Z,39.85
2022-12-04T04:19:17.222Z,56.67
2022-12-04T04:22:04.540Z,48.90
2022-12-04T04:24:40.160Z,53.63
2022-12-04T04:27:08.511Z,56.80
2022-12-04T04:29:37.010Z,54.08
2022-12-04T04:32:13.338Z,45.05
2022-12-04T04:34:49.910Z,60.35
2022-12-04T04:37:29.999Z,58.85
2022-12-04T04:40:05.958Z,49.42
2022-12-04T04:42:39.196Z,39.33
2022-12-04T04:45:15.006Z,45.05
2022-12-04T04:47:49.985Z,52.03
2022-12-04T04:50:19.626Z,45.42
2022-12-04T04:52:51.992Z,44.92
2022-12-04T04:55:21.133Z,49.00
2022-12-04T04:57:50.752Z,57.53
2022-12-04T05:00:22.044Z,51.50
2022-12-04T05:02:51.412Z,52.97
2022-12-04T05:05:19.470Z,54.08
2022-12-04T05:07:47.602Z,50.83
2022-12-04T05:10:15.580Z,49.05
2022-12-04T05:12:43.506Z,48.90
2022-12-04T05:15:12.186Z,48.05
2022-12-04T05:17:40.182Z,38.20
2022-12-04T05:20:11.738Z,49.60
2022-12-04T05:22:39.633Z,48.47
2022-12-04T05:25:08.386Z,49.40
2022-12-04T05:27:36.312Z,43.92
2022-12-04T05:30:05.265Z,46.17
2022-12-04T05:32:33.165Z,52.58
2022-12-04T05:35:01.642Z,42.92
2022-12-04T05:37:32.378Z,45.92
2022-12-04T05:40:00.284Z,41.25
2022-12-04T05:42:28.151Z,44.80
2022-12-04T05:44:56.112Z,50.92
2022-12-04T05:47:24.012Z,45.53
2022-12-04T05:49:52.229Z,43.70
2022-12-04T05:52:20.299Z,52.25
2022-12-04T05:54:49.520Z,49.75
2022-12-04T05:57:17.350Z,40.47
2022-12-04T05:59:45.267Z,48.95
2022-12-04T06:02:13.216Z,53.10
2022-12-04T06:04:41.199Z,43.50
2022-12-04T06:07:10.573Z,50.97
2022-12-04T06:09:39.058Z,42.38
2022-12-04T06:12:08.518Z,59.53
2022-12-04T06:14:39.783Z,54.47
2022-12-04T06:17:08.290Z,55.65
2022-12-04T06:19:36.548Z,47.55
2022-12-04T06:22:05.022Z,51.53
2022-12-04T06:24:33.024Z,49.88
2022-12-04T06:27:26.633Z,45.25
2022-12-04T06:29:51.006Z,52.75
2022-12-04T06:32:21.841Z,54.42
2022-12-04T06:34:52.503Z,48.78
2022-12-04T06:37:20.800Z,47.63
2022-12-04T06:39:48.723Z,52.13
2022-12-04T06:42:16.897Z,51.35
2022-12-04T06:44:44.859Z,53.10
2022-12-04T06:47:14.127Z,53.10
2022-12-04T06:49:42.207Z,48.45
2022-12-04T06:52:10.110Z,49.22
2022-12-04T06:54:38.034Z,43.55
2022-12-04T06:57:05.940Z,53.88
2022-12-04T06:59:34.025Z,48.08
2022-12-04T07:02:02.066Z,44.78
2022-12-04T07:04:31.373Z,46.60
2022-12-04T07:06:59.337Z,53.03
2022-12-04T07:09:27.453Z,53.80
2022-12-04T07:11:55.446Z,42.08
2022-12-04T07:14:23.375Z,45.35
2022-12-04T07:16:51.449Z,46.35
2022-12-04T07:19:19.516Z,51.58
2022-12-04T07:21:48.814Z,57.00
2022-12-04T07:24:18.132Z,50.67
2022-12-04T07:26:46.301Z,50.55
2022-12-04T07:29:14.567Z,51.65
2022-12-04T07:31:44.173Z,49.70
2022-12-04T07:34:12.274Z,53.50
2022-12-04T07:36:41.270Z,46.70
2022-12-04T07:39:10.525Z,46.28
2022-12-04T07:41:38.535Z,50.38
2022-12-04T07:44:08.713Z,55.08
2022-12-04T07:46:36.629Z,42.30
2022-12-04T07:49:04.612Z,50.15
2022-12-04T07:51:32.570Z,46.85
2022-12-04T07:54:03.629Z,45.70
2022-12-04T07:56:37.846Z,47.10
2022-12-04T07:59:05.877Z,47.20
2022-12-04T08:01:34.262Z,46.95
2022-12-04T08:05:27.729Z,45.53
2022-12-04T08:07:55.690Z,46.40
2022-12-04T08:10:23.896Z,45.90
2022-12-04T08:12:51.779Z,44.97
2022-12-04T08:15:19.631Z,48.42
2022-12-04T08:17:47.604Z,53.45
2022-12-04T08:20:16.268Z,49.53
2022-12-04T08:22:45.500Z,47.38
2022-12-04T08:25:13.425Z,55.78
2022-12-04T08:27:47.741Z,52.10
2022-12-04T08:30:16.073Z,46.35
2022-12-04T08:32:44.018Z,51.03
2022-12-04T08:35:11.959Z,51.22
2022-12-04T08:37:39.937Z,42.42
2022-12-04T08:40:11.527Z,49.55
2022-12-04T08:42:39.507Z,47.17
2022-12-04T08:45:08.767Z,49.25
2022-12-04T08:47:36.709Z,44.40
2022-12-04T08:50:05.437Z,45.70
2022-12-04T08:52:33.379Z,45.92
2022-12-04T08:55:01.285Z,46.80
2022-12-04T08:57:30.539Z,39.20
2022-12-04T08:59:58.751Z,47.38
2022-12-04T09:02:26.823Z,45.67
2022-12-04T09:04:57.570Z,45.35
2022-12-04T09:07:25.577Z,50.85
2022-12-04T09:09:53.504Z,46.88
2022-12-04T09:12:24.138Z,50.22
2022-12-04T09:14:53.408Z,47.25
2022-12-04T09:17:21.486Z,46.55
2022-12-04T09:19:50.036Z,46.80
2022-12-04T09:22:18.020Z,47.13
2022-12-04T09:24:45.869Z,43.83
2022-12-04T09:27:15.111Z,37.80
2022-12-04T09:29:43.125Z,37.30
2022-12-04T09:32:12.409Z,43.03
2022-12-04T09:34:47.047Z,37.30
2022-12-04T09:37:18.910Z,41.15
2022-12-04T09:39:47.478Z,41.90
2022-12-04T09:42:36.829Z,51.22
2022-12-04T09:45:11.835Z,38.70
2022-12-04T09:47:45.549Z,45.85
2022-12-04T09:50:17.862Z,37.28
2022-12-04T09:52:51.962Z,42.53
2022-12-04T09:55:25.330Z,43.53
2022-12-04T09:58:01.492Z,43.85
2022-12-04T10:00:33.511Z,43.65
2022-12-04T10:03:06.423Z,37.67
2022-12-04T10:05:50.528Z,30.20
2022-12-04T10:08:23.469Z,41.45
2022-12-04T10:11:00.566Z,46.10
2022-12-04T10:13:58.262Z,53.17
2022-12-04T10:16:34.489Z,37.65
2022-12-04T10:19:09.309Z,39.55
2022-12-04T10:21:50.893Z,44.83
2022-12-04T10:24:27.121Z,42.90
2022-12-04T10:26:59.300Z,36.78
2022-12-04T10:29:31.742Z,32.20
2022-12-04T10:32:13.809Z,39.03
2022-12-04T10:34:46.238Z,37.80
2022-12-04T10:37:16.170Z,43.70
2022-12-04T10:39:49.049Z,38.63
2022-12-04T10:42:26.683Z,32.20
2022-12-04T10:44:55.075Z,34.25
2022-12-04T10:47:24.618Z,37.17
2022-12-04T10:49:59.858Z,44.72
2022-12-04T10:52:27.804Z,46.15
2022-12-04T10:54:59.303Z,41.47
2022-12-04T10:57:37.353Z,38.08
2022-12-04T11:00:24.051Z,38.53
2022-12-04T11:02:53.130Z,39.90
2022-12-04T11:05:29.440Z,40.85
2022-12-04T11:07:58.343Z,39.55
2022-12-04T11:10:32.933Z,31.00
2022-12-04T11:13:02.654Z,36.30
2022-12-04T11:15:31.291Z,37.38
2022-12-04T11:18:09.060Z,40.08
2022-12-04T11:20:40.752Z,37.22
2022-12-04T11:23:17.341Z,40.90
2022-12-04T11:25:47.807Z,41.65
2022-12-04T11:28:40.163Z,33.35
2022-12-04T11:31:12.051Z,29.60
2022-12-04T11:33:44.201Z,35.80
2022-12-04T11:36:21.869Z,32.58
2022-12-04T11:38:50.700Z,36.03
2022-12-04T11:41:27.078Z,32.28
2022-12-04T11:43:59.539Z,43.40
2022-12-04T11:46:30.812Z,33.10
2022-12-04T11:48:59.082Z,32.30
2022-12-04T11:51:40.867Z,33.00
2022-12-04T11:54:21.618Z,38.38
2022-12-04T11:56:59.845Z,29.73
2022-12-04T11:59:48.759Z,34.00
2022-12-04T12:02:34.218Z,37.97
2022-12-04T12:05:28.434Z,33.42
2022-12-04T12:08:06.948Z,30.63
2022-12-04T12:10:45.008Z,36.20
2022-12-04T12:13:19.699Z,37.75
2022-12-04T12:15:56.725Z,38.30
2022-12-04T12:18:44.883Z,35.65
2022-12-04T12:21:21.426Z,35.45
2022-12-04T12:24:08.284Z,34.85
2022-12-04T12:26:46.369Z,35.08
2022-12-04T12:29:27.894Z,28.88
2022-12-04T12:32:09.914Z,36.00
2022-12-04T12:34:41.499Z,28.48
2022-12-04T12:37:17.969Z,31.73
2022-12-04T12:39:56.793Z,30.70
2022-12-04T12:42:31.732Z,31.15
2022-12-04T12:45:05.730Z,32.10
2022-12-04T12:47:41.953Z,33.15
2022-12-04T12:50:16.662Z,31.48
2022-12-04T12:52:52.708Z,38.17
2022-12-04T12:55:27.017Z,32.70
2022-12-04T12:58:02.325Z,25.95
2022-12-04T13:00:33.335Z,32.80
2022-12-04T13:03:04.900Z,28.27
2022-12-04T13:05:38.616Z,31.23
2022-12-04T13:08:18.049Z,33.40
2022-12-04T13:10:51.123Z,34.03
2022-12-04T13:13:27.406Z,35.38
2022-12-04T13:16:00.396Z,33.90
2022-12-04T13:18:31.504Z,38.50
2022-12-04T13:21:03.217Z,37.22
2022-12-04T13:23:47.955Z,34.00
2022-12-04T13:26:30.815Z,32.80
2022-12-04T13:29:09.845Z,39.50
2022-12-04T13:31:53.092Z,40.35
2022-12-04T13:34:45.307Z,34.67
2022-12-04T13:37:45.190Z,34.53
2022-12-04T13:40:38.617Z,41.30
2022-12-04T13:43:28.879Z,36.67
2022-12-04T13:46:00.309Z,43.90
2022-12-04T13:48:36.433Z,38.08
2022-12-04T13:51:23.384Z,37.47
2022-12-04T13:54:03.194Z,36.17
2022-12-04T13:56:32.841Z,38.13
2022-12-04T13:59:06.355Z,43.92
2022-12-04T14:01:40.338Z,37.30
2022-12-04T14:04:08.932Z,49.38
2022-12-04T14:06:40.351Z,41.35
2022-12-04T14:09:19.527Z,34.05
2022-12-04T14:11:52.290Z,41.25
2022-12-04T14:14:29.490Z,42.67
2022-12-04T14:17:03.160Z,42.55
2022-12-04T14:19:35.542Z,49.42
2022-12-04T14:22:04.586Z,38.50
2022-12-04T14:24:36.140Z,46.05
2022-12-04T14:27:24.936Z,40.55
2022-12-04T14:29:57.951Z,39.35
2022-12-04T14:32:29.063Z,48.70
2022-12-04T14:34:58.926Z,43.58
2022-12-04T14:37:32.070Z,52.25
2022-12-04T14:40:01.742Z,39.67
2022-12-04T14:42:37.692Z,47.67
2022-12-04T14:45:22.537Z,39.63
2022-12-04T14:48:16.952Z,41.20
2022-12-04T14:50:55.529Z,54.25
2022-12-04T14:53:36.078Z,42.17
2022-12-04T14:56:18.919Z,39.47
2022-12-04T14:58:47.203Z,50.63
2022-12-04T15:01:28.962Z,43.33
2022-12-04T15:04:03.899Z,49.80
2022-12-04T15:06:34.819Z,46.08
2022-12-04T15:09:23.082Z,49.92
2022-12-04T15:12:13.744Z,55.40
2022-12-04T15:14:43.526Z,53.13
2022-12-04T15:17:19.379Z,44.17
2022-12-04T15:19:48.711Z,57.53
2022-12-04T15:22:24.163Z,54.28
2022-12-04T15:24:55.918Z,48.30
2022-12-04T15:27:32.622Z,59.97
2022-12-04T15:30:05.393Z,57.00
2022-12-04T15:32:35.485Z,53.72
2022-12-04T15:35:06.997Z,50.97
2022-12-04T15:37:38.164Z,56.22
2022-12-04T15:40:07.990Z,59.95
2022-12-04T15:42:36.175Z,65.75
2022-12-04T15:45:26.359Z,65.93
2022-12-04T15:47:57.180Z,58.28
2022-12-04T15:50:28.040Z,66.43
2022-12-04T15:53:00.766Z,54.10
2022-12-04T15:55:31.792Z,54.80
2022-12-04T15:58:05.831Z,54.65
2022-12-04T16:00:37.288Z,72.43
2022-12-04T16:03:22.814Z,63.67
2022-12-04T16:05:50.991Z,61.97
2022-12-04T16:08:27.090Z,61.60
2022-12-04T16:11:00.484Z,63.13
2022-12-04T16:13:32.284Z,65.50
2022-12-04T16:16:01.332Z,70.55
2022-12-04T16:18:30.820Z,66.85
2022-12-04T16:20:58.913Z,76.38
2022-12-04T16:23:30.304Z,59.90
2022-12-04T16:25:58.299Z,68.03
2022-12-04T16:28:26.305Z,75.65
2022-12-04T16:30:54.674Z,86.25
2022-12-04T16:33:22.769Z,78.88
2022-12-04T16:35:52.097Z,75.22
2022-12-04T16:38:22.598Z,73.78
2022-12-04T16:40:50.713Z,72.18
2022-12-04T16:43:22.116Z,68.32
2022-12-04T16:45:53.362Z,66.50
2022-12-04T16:48:21.463Z,85.07
2022-12-04T16:50:49.619Z,89.53
2022-12-04T16:53:21.172Z,70.72
2022-12-04T16:55:50.872Z,69.60
2022-12-04T16:58:20.290Z,92.88
2022-12-04T17:00:53.270Z,72.80
2022-12-04T17:03:25.575Z,86.90
2022-12-04T17:05:53.706Z,69.38
2022-12-04T17:08:23.971Z,79.93
2022-12-04T17:10:52.988Z,61.15
2022-12-04T17:13:22.255Z,61.20
2022-12-04T17:15:53.460Z,70.20
2022-12-04T17:18:28.708Z,70.47
2022-12-04T17:20:58.598Z,84.45
2022-12-04T17:23:28.265Z,81.63
2022-12-04T17:25:56.331Z,87.57
2022-12-04T17:28:24.495Z,79.20
2022-12-04T17:30:52.498Z,75.45
2022-12-04T17:33:23.295Z,70.30
2022-12-04T17:35:53.047Z,101.47
2022-12-04T17:38:23.528Z,75.40
2022-12-04T17:41:01.121Z,66.60
2022-12-04T17:43:32.073Z,74.57
2022-12-04T17:46:00.725Z,80.65
2022-12-04T17:48:30.075Z,82.47
2022-12-04T17:51:08.421Z,82.65
2022-12-04T17:53:39.260Z,90.65
2022-12-04T17:56:11.475Z,85.10
2022-12-04T17:58:39.893Z,85.75
2022-12-04T18:01:12.491Z,82.80
2022-12-04T18:03:41.243Z,84.88
2022-12-04T18:06:14.808Z,74.88
2022-12-04T18:08:48.294Z,73.32
2022-12-04T18:11:21.427Z,85.82
2022-12-04T18:13:50.117Z,81.63
2022-12-04T18:16:20.241Z,86.07
2022-12-04T18:18:48.618Z,66.72
2022-12-04T18:21:19.386Z,76.75
2022-12-04T18:23:47.430Z,65.18
2022-12-04T18:26:17.436Z,60.17
2022-12-04T18:28:47.703Z,75.07
2022-12-04T18:31:21.344Z,76.80
2022-12-04T18:33:50.261Z,54.95
2022-12-04T18:36:21.087Z,69.43
2022-12-04T18:38:54.824Z,72.03
2022-12-04T18:41:22.950Z,70.32
2022-12-04T18:43:52.521Z,70.43
2022-12-04T18:46:23.631Z,71.95
2022-12-04T18:48:54.597Z,56.38
2022-12-04T18:51:24.503Z,61.13
2022-12-04T18:53:55.319Z,70.85
2022-12-04T18:56:25.867Z,68.85
2022-12-04T18:58:59.986Z,81.95
2022-12-04T19:01:29.018Z,67.32
2022-12-04T19:04:00.784Z,76.07
2022-12-04T19:06:30.870Z,74.18
2022-12-04T19:09:01.347Z,67.00
2022-12-04T19:11:29.643Z,65.28
2022-12-04T19:13:59.552Z,77.60
2022-12-04T19:16:28.261Z,77.07
2022-12-04T19:18:57.348Z,73.82
2022-12-04T19:21:25.335Z,74.25
2022-12-04T19:23:58.136Z,73.38
2022-12-04T19:26:26.811Z,65.80
2022-12-04T19:28:55.921Z,74.82
2022-12-04T19:31:27.627Z,66.00
2022-12-04T19:33:57.730Z,53.75
2022-12-04T19:36:26.326Z,58.08
2022-12-04T19:38:54.607Z,57.42
2022-12-04T19:41:25.654Z,58.53
2022-12-04T19:43:57.124Z,73.90
2022-12-04T19:46:29.065Z,63.50
2022-12-04T19:49:01.463Z,64.93
2022-12-04T19:51:32.011Z,65.20
2022-12-04T19:54:01.210Z,61.30
2022-12-04T19:56:31.604Z,76.85
2022-12-04T19:59:03.086Z,76.82
2022-12-04T20:01:33.377Z,58.17
2022-12-04T20:04:03.588Z,68.07
2022-12-04T20:06:35.687Z,56.10
2022-12-04T20:09:06.184Z,51.95
2022-12-04T20:11:35.193Z,58.70
2022-12-04T20:14:04.214Z,55.63
2022-12-04T20:16:35.712Z,56.35
2022-12-04T20:19:06.204Z,54.85
2022-12-04T20:21:35.127Z,55.17
2022-12-04T20:24:06.584Z,56.55
2022-12-04T20:26:37.464Z,67.80
2022-12-04T20:29:07.261Z,56.53
2022-12-04T20:31:39.648Z,66.30
2022-12-04T20:34:11.479Z,54.50
2022-12-04T20:36:41.654Z,59.90
2022-12-04T20:39:11.471Z,63.42
2022-12-04T20:41:39.963Z,57.78
2022-12-04T20:44:12.421Z,63.45
2022-12-04T20:46:42.560Z,62.10
2022-12-04T20:49:20.705Z,64.65
2022-12-04T20:51:51.004Z,62.90
2022-12-04T20:54:21.371Z,52.20
2022-12-04T20:56:49.863Z,53.00
2022-12-04T20:59:19.309Z,62.28
2022-12-04T21:01:50.466Z,45.08
2022-12-04T21:04:19.104Z,75.28
2022-12-04T21:06:47.783Z,60.53
2022-12-04T21:09:18.057Z,73.70
2022-12-04T21:11:49.204Z,69.25
2022-12-04T21:14:36.638Z,61.88
2022-12-04T21:17:07.429Z,65.18
2022-12-04T21:19:35.764Z,67.50
2022-12-04T21:22:04.109Z,52.90
2022-12-04T21:24:38.389Z,56.88
2022-12-04T21:27:07.760Z,70.30
2022-12-04T21:29:35.986Z,59.83
2022-12-04T21:32:04.623Z,68.35
2022-12-04T21:34:34.647Z,78.82
2022-12-04T21:37:02.597Z,60.15
2022-12-04T21:39:30.773Z,65.00
2022-12-04T21:42:18.731Z,74.85
2022-12-04T21:44:46.852Z,72.40
2022-12-04T21:47:16.740Z,72.22
2022-12-04T21:49:48.943Z,57.38
2022-12-04T21:52:27.897Z,62.88
2022-12-04T21:54:56.648Z,59.72
2022-12-04T21:57:25.317Z,64.32
2022-12-04T21:59:57.736Z,57.90
2022-12-04T22:02:26.041Z,65.60
2022-12-04T22:04:55.713Z,61.00
2022-12-04T22:07:23.868Z,64.60
2022-12-04T22:09:51.825Z,66.13
2022-12-04T22:12:47.717Z,70.40
2022-12-04T22:15:09.022Z,60.40
2022-12-04T22:17:39.241Z,72.20
2022-12-04T22:20:09.528Z,71.13
2022-12-04T22:22:37.535Z,74.18
2022-12-04T22:25:06.017Z,61.00
2022-12-04T22:27:34.132Z,55.95
2022-12-04T22:30:02.484Z,64.78
2022-12-04T22:32:32.312Z,79.80
2022-12-04T22:35:00.339Z,90.15
2022-12-04T22:37:29.576Z,59.75
2022-12-04T22:40:00.436Z,67.30
2022-12-04T22:42:28.411Z,77.53
2022-12-04T22:44:56.408Z,70.47
2022-12-04T22:47:24.416Z,78.63
2022-12-04T22:49:52.360Z,67.63
2022-12-04T22:52:20.469Z,65.68
2022-12-04T22:54:51.171Z,60.78
2022-12-04T22:57:19.435Z,68.57
2022-12-04T22:59:47.320Z,73.15
2022-12-04T23:02:15.226Z,70.97
2022-12-04T23:04:43.773Z,64.85
2022-12-04T23:07:11.848Z,60.88
2022-12-04T23:09:40.104Z,57.25
2022-12-04T23:12:10.053Z,62.60
2022-12-04T23:14:37.968Z,63.47
2022-12-04T23:17:06.145Z,66.80
2022-12-04T23:19:34.309Z,68.43
2022-12-04T23:22:02.308Z,59.05
2022-12-04T23:24:30.244Z,79.57
2022-12-04T23:26:58.284Z,65.57
2022-12-04T23:29:51.956Z,65.60
2022-12-04T23:32:16.389Z,62.85
2022-12-04T23:34:44.436Z,75.90
2022-12-04T23:37:12.482Z,74.00
2022-12-04T23:39:40.512Z,54.67
2022-12-04T23:42:08.508Z,85.65
2022-12-04T23:44:37.989Z,61.55
2022-12-04T23:47:05.987Z,68.40
2022-12-04T23:49:34.187Z,80.25
2022-12-04T23:52:02.529Z,67.32
2022-12-04T23:54:34.923Z,60.25
2022-12-04T23:57:03.262Z,64.75
2022-12-04T23:59:31.595Z,63.60
